createdAt,value
2019-03-30T00:01:55.222Z,11.23
2019-03-30T00:04:27.334Z,11.22
2019-03-30T00:06:59.120Z,11.25
2019-03-30T00:09:31.356Z,11.14
2019-03-30T00:12:03.602Z,11.16
2019-03-30T00:14:36.001Z,11.04
2019-03-30T00:17:07.859Z,11.04
2019-03-30T00:19:39.674Z,11.04
2019-03-30T00:22:12.736Z,10.91
2019-03-30T00:24:44.564Z,10.92
2019-03-30T00:27:16.344Z,10.84
2019-03-30T00:29:49.022Z,10.71
2019-03-30T00:32:20.882Z,10.92
2019-03-30T00:34:52.766Z,10.88
2019-03-30T00:37:24.950Z,10.84
2019-03-30T00:39:56.847Z,10.83
2019-03-30T00:42:29.007Z,10.88
2019-03-30T00:45:01.062Z,10.83
2019-03-30T00:47:33.349Z,10.76
2019-03-30T00:50:05.542Z,10.68
2019-03-30T00:52:37.422Z,10.71
2019-03-30T00:55:09.481Z,10.66
2019-03-30T00:57:41.273Z,10.58
2019-03-30T01:00:13.652Z,10.61
2019-03-30T01:02:45.611Z,10.63
2019-03-30T01:05:18.117Z,10.45
2019-03-30T01:07:50.068Z,10.38
2019-03-30T01:10:22.049Z,10.37
2019-03-30T01:12:55.554Z,10.30
2019-03-30T01:15:27.501Z,10.40
2019-03-30T01:17:59.771Z,10.20
2019-03-30T01:20:31.651Z,10.25
2019-03-30T01:23:03.440Z,10.41
2019-03-30T01:25:36.527Z,10.49
2019-03-30T01:28:08.432Z,10.35
2019-03-30T01:30:40.498Z,10.31
2019-03-30T01:33:12.552Z,10.47
2019-03-30T01:35:44.332Z,10.39
2019-03-30T01:38:16.197Z,10.28
2019-03-30T01:40:49.030Z,10.31
2019-03-30T12:29:28.666Z,20.06
2019-03-30T12:32:00.910Z,20.06
2019-03-30T12:34:33.175Z,20.02
2019-03-30T12:37:05.077Z,20.15
2019-03-30T12:39:37.533Z,20.11
2019-03-30T12:42:10.732Z,20.13
2019-03-30T12:44:42.697Z,20.21
2019-03-30T12:47:15.165Z,20.25
2019-03-30T12:49:47.019Z,20.21
2019-03-30T12:52:19.004Z,20.35
2019-03-30T12:54:51.093Z,20.29
2019-03-30T12:57:22.974Z,20.34
2019-03-30T12:59:54.865Z,20.31
2019-03-30T13:02:27.020Z,20.31
2019-03-30T13:04:59.125Z,20.32
2019-03-30T13:07:31.124Z,20.40
2019-03-30T13:10:03.146Z,20.35
2019-03-30T13:12:34.963Z,20.29
2019-03-30T13:15:07.881Z,20.33
2019-03-30T13:17:40.665Z,20.29
2019-03-30T13:20:12.896Z,20.27
2019-03-30T13:22:45.926Z,20.33
2019-03-30T13:25:18.580Z,20.30
2019-03-30T13:27:53.350Z,20.44
2019-03-30T13:30:24.540Z,20.35
2019-03-30T13:32:56.358Z,20.21
2019-03-30T13:35:28.333Z,20.22
2019-03-30T13:38:00.225Z,20.29
2019-03-30T13:40:32.144Z,20.30
2019-03-30T13:43:04.211Z,20.23
2019-03-30T13:45:36.049Z,20.23
2019-03-30T13:48:08.174Z,20.34
2019-03-30T13:50:40.645Z,20.29
2019-03-30T13:53:13.711Z,20.28
2019-03-30T13:55:48.021Z,20.21
2019-03-30T13:58:21.108Z,20.34
2019-03-30T14:00:53.914Z,20.46
2019-03-30T14:03:26.073Z,20.56
2019-03-30T14:05:57.900Z,20.63
2019-03-30T14:08:29.736Z,20.71
2019-03-30T14:11:01.914Z,20.71
2019-03-30T14:13:34.013Z,20.62
2019-03-30T14:16:06.002Z,20.44
2019-03-30T14:18:38.083Z,20.51
2019-03-30T14:21:10.009Z,20.50
2019-03-30T14:23:43.486Z,20.40
2019-03-30T14:26:15.468Z,20.48
2019-03-30T14:28:47.294Z,20.43
2019-03-30T14:31:19.385Z,20.32
2019-03-30T14:33:51.218Z,20.27
2019-03-30T14:36:23.070Z,20.16
2019-03-30T14:38:56.538Z,20.35
2019-03-30T14:41:28.473Z,20.34
2019-03-30T14:44:00.267Z,20.32
2019-03-30T14:46:32.342Z,20.34
2019-03-30T14:49:04.488Z,20.41
2019-03-30T14:51:36.858Z,20.37
2019-03-30T14:54:09.032Z,20.41
2019-03-30T14:56:45.879Z,20.36
2019-03-30T14:59:14.741Z,20.37
2019-03-30T15:01:47.084Z,20.35
2019-03-30T15:04:19.224Z,20.37
2019-03-30T15:06:51.348Z,20.35
2019-03-30T15:09:23.285Z,20.38
2019-03-30T15:11:55.463Z,20.35
2019-03-30T15:14:27.282Z,20.33
2019-03-30T15:17:00.534Z,20.36
2019-03-30T15:19:32.434Z,20.32
2019-03-30T15:22:04.273Z,20.26
2019-03-30T15:24:36.359Z,20.23
2019-03-30T15:27:08.290Z,20.23
2019-03-30T15:29:40.460Z,20.26
2019-03-30T15:32:12.238Z,20.23
2019-03-30T15:34:44.487Z,20.17
2019-03-30T15:37:16.343Z,20.17
2019-03-30T15:39:48.141Z,20.18
2019-03-30T15:42:21.321Z,20.16
2019-03-30T15:44:54.337Z,20.14
2019-03-30T15:50:04.895Z,20.22
2019-03-30T15:52:36.798Z,20.14
2019-03-30T15:55:09.141Z,20.05
2019-03-30T15:57:41.305Z,19.95
2019-03-30T16:00:16.519Z,19.94
2019-03-30T16:02:48.395Z,19.94
2019-03-30T16:05:21.491Z,19.83
2019-03-30T16:07:53.437Z,19.85
2019-03-30T16:10:25.323Z,19.83
2019-03-30T16:12:57.113Z,19.74
2019-03-30T16:15:28.958Z,19.69
2019-03-30T16:18:00.829Z,19.64
2019-03-30T16:20:32.689Z,19.59
2019-03-30T16:23:04.469Z,19.56
2019-03-30T16:25:36.405Z,19.52
2019-03-30T16:28:08.210Z,19.51
2019-03-30T16:30:40.290Z,19.47
2019-03-30T16:33:12.114Z,19.45
2019-03-30T16:35:43.956Z,19.46
2019-03-30T16:38:15.944Z,19.43
2019-03-30T16:40:48.561Z,19.32
2019-03-30T16:43:21.476Z,19.30
2019-03-30T16:45:53.318Z,19.32
2019-03-30T16:48:25.158Z,19.33
2019-03-30T16:50:57.759Z,19.26
2019-03-30T16:53:29.628Z,19.26
2019-03-30T16:56:01.717Z,19.24
2019-03-30T16:58:33.621Z,19.20
2019-03-30T17:01:05.689Z,19.15
2019-03-30T17:03:37.491Z,19.15
2019-03-30T17:06:09.558Z,19.05
2019-03-30T17:08:41.456Z,19.00
2019-03-30T17:11:13.256Z,18.96
2019-03-30T17:13:45.250Z,18.95
2019-03-30T17:16:17.230Z,18.90
2019-03-30T17:18:49.228Z,18.86
2019-03-30T17:21:21.551Z,18.83
2019-03-30T17:23:54.743Z,18.81
2019-03-30T17:26:26.640Z,18.77
2019-03-30T17:28:58.579Z,18.73
2019-03-30T17:31:30.382Z,18.72
2019-03-30T17:34:02.194Z,18.65
2019-03-30T17:36:34.552Z,18.59
2019-03-30T17:39:10.390Z,18.61
2019-03-30T17:41:42.617Z,18.57
2019-03-30T17:44:14.443Z,18.55
2019-03-30T17:46:46.245Z,18.47
2019-03-30T17:49:18.124Z,18.44
2019-03-30T17:51:53.828Z,18.37
2019-03-30T17:54:24.173Z,18.35
2019-03-30T17:56:55.970Z,18.27
2019-03-30T17:59:27.770Z,18.20
2019-03-30T18:01:59.572Z,18.15
2019-03-30T18:04:31.351Z,18.11
2019-03-30T18:07:03.175Z,18.04
2019-03-30T18:09:34.967Z,18.01
2019-03-30T18:12:06.927Z,18.00
2019-03-30T18:14:39.672Z,17.95
2019-03-30T18:17:11.469Z,17.90
2019-03-30T18:19:43.335Z,17.82
2019-03-30T18:22:15.142Z,17.74
2019-03-30T18:24:46.992Z,17.68
2019-03-30T18:27:19.401Z,17.62
2019-03-30T18:29:51.785Z,17.57
2019-03-30T18:32:23.780Z,17.53
2019-03-30T18:34:55.718Z,17.52
2019-03-30T18:37:27.751Z,17.48
2019-03-30T18:40:00.145Z,17.50
2019-03-30T18:42:32.163Z,17.44
2019-03-30T18:45:04.687Z,17.39
2019-03-30T18:47:36.657Z,17.30
2019-03-30T18:50:09.107Z,17.22
2019-03-30T18:52:41.143Z,17.17
2019-03-30T18:55:18.251Z,17.12
2019-03-30T18:57:50.132Z,17.11
2019-03-30T19:00:28.071Z,17.04
2019-03-30T19:03:00.004Z,17.02
2019-03-30T19:05:31.784Z,16.98
2019-03-30T19:08:03.743Z,17.00
2019-03-30T19:10:35.593Z,16.99
2019-03-30T19:13:07.686Z,16.98
2019-03-30T19:15:40.302Z,16.93
2019-03-30T19:18:12.147Z,16.90
2019-03-30T19:20:44.005Z,16.83
2019-03-30T19:23:15.874Z,16.72
2019-03-30T19:25:47.669Z,16.53
2019-03-30T19:28:19.472Z,16.38
2019-03-30T19:30:51.888Z,16.31
2019-03-30T19:33:23.683Z,16.13
2019-03-30T19:35:55.459Z,15.87
2019-03-30T19:38:27.239Z,15.83
2019-03-30T19:40:59.985Z,15.69
2019-03-30T19:43:32.079Z,15.64
2019-03-30T19:46:04.357Z,15.54
2019-03-30T19:48:37.161Z,15.55
2019-03-30T19:51:09.279Z,15.41
2019-03-30T19:53:41.177Z,15.38
2019-03-30T19:56:12.948Z,15.31
2019-03-30T19:58:44.883Z,15.34
2019-03-30T20:01:17.429Z,15.37
2019-03-30T20:03:50.859Z,15.26
2019-03-30T20:06:22.760Z,15.21
2019-03-30T20:08:54.614Z,15.24
2019-03-30T20:11:27.457Z,15.11
2019-03-30T20:13:59.588Z,15.12
2019-03-30T20:16:31.456Z,15.14
2019-03-30T20:19:12.191Z,15.08
2019-03-30T20:21:37.047Z,14.94
2019-03-30T20:24:08.841Z,14.90
2019-03-30T20:26:41.125Z,14.87
2019-03-30T20:29:24.665Z,14.78
2019-03-30T20:31:46.409Z,14.74
2019-03-30T20:34:18.191Z,14.75
2019-03-30T20:36:50.943Z,14.85
2019-03-30T20:39:23.214Z,14.75
2019-03-30T20:41:55.123Z,14.66
2019-03-30T20:44:27.028Z,14.68
2019-03-30T20:46:58.861Z,14.61
2019-03-30T20:49:30.710Z,14.52
2019-03-30T20:52:03.543Z,14.48
2019-03-30T20:54:35.441Z,14.44
2019-03-30T20:57:07.447Z,14.32
2019-03-30T20:59:40.424Z,14.31
2019-03-30T21:02:12.361Z,14.34
2019-03-30T21:04:44.206Z,14.25
2019-03-30T21:07:16.311Z,14.25
2019-03-30T21:09:48.117Z,14.24
2019-03-30T21:12:19.967Z,14.17
2019-03-30T21:14:53.012Z,14.24
2019-03-30T21:17:25.016Z,14.23
2019-03-30T21:19:56.789Z,14.20
2019-03-30T21:22:28.726Z,14.19
2019-03-30T21:25:00.508Z,14.06
2019-03-30T21:27:32.595Z,14.03
2019-03-30T21:30:05.558Z,13.94
2019-03-30T21:32:39.093Z,13.92
2019-03-30T21:35:11.202Z,13.88
2019-03-30T21:37:42.958Z,13.92
2019-03-30T21:40:15.025Z,13.87
2019-03-30T21:42:46.795Z,13.75
2019-03-30T21:45:18.650Z,13.81
2019-03-30T21:47:50.434Z,13.68
2019-03-30T21:50:22.212Z,13.59
2019-03-30T21:52:53.962Z,13.58
2019-03-30T21:55:25.740Z,13.61
2019-03-30T21:57:57.820Z,13.58
2019-03-30T22:00:36.992Z,13.53
2019-03-30T22:03:09.126Z,13.44
2019-03-30T22:05:41.479Z,13.54
2019-03-30T22:08:15.607Z,13.41
2019-03-30T22:10:46.733Z,13.44
2019-03-30T22:13:21.542Z,13.51
2019-03-30T22:15:53.439Z,13.42
2019-03-30T22:18:25.274Z,13.34
2019-03-30T22:20:58.133Z,13.32
2019-03-30T22:23:30.072Z,13.32
2019-03-30T22:26:02.466Z,13.26
2019-03-30T22:28:34.251Z,13.21
2019-03-30T22:31:06.211Z,13.10
2019-03-30T22:33:37.983Z,12.98
2019-03-30T22:36:09.839Z,12.95
2019-03-30T22:38:41.681Z,12.89
2019-03-30T22:41:13.483Z,12.75
2019-03-30T22:43:45.264Z,12.71
2019-03-30T22:46:17.317Z,12.66
2019-03-30T22:48:49.223Z,12.58
2019-03-30T22:51:22.295Z,12.48
2019-03-30T22:53:54.156Z,12.55
2019-03-30T22:56:25.988Z,12.44
2019-03-30T22:58:57.866Z,12.34
2019-03-30T23:01:29.807Z,12.26
2019-03-30T23:04:01.572Z,12.17
2019-03-30T23:06:33.368Z,12.11
2019-03-30T23:09:07.164Z,12.13
2019-03-30T23:11:39.284Z,12.12
2019-03-30T23:14:12.435Z,12.01
2019-03-30T23:16:44.212Z,11.96
2019-03-30T23:19:16.137Z,12.01
2019-03-30T23:21:48.055Z,12.08
2019-03-30T23:24:20.854Z,11.91
2019-03-30T23:26:52.715Z,11.81
2019-03-30T23:29:25.184Z,11.82
2019-03-30T23:31:57.013Z,11.86
2019-03-30T23:34:28.774Z,11.92
2019-03-30T23:37:00.676Z,11.94
2019-03-30T23:39:32.611Z,11.92
2019-03-30T23:42:04.384Z,11.96
2019-03-30T23:44:36.202Z,11.82
2019-03-30T23:47:07.985Z,11.96
2019-03-30T23:49:39.791Z,11.78
2019-03-30T23:52:11.666Z,11.85
2019-03-30T23:54:44.483Z,11.78
2019-03-30T23:57:16.261Z,11.73
2019-03-30T23:59:48.329Z,11.77
